עמוד ראשי
METAR-TAF:

METAR-TAF

שדות תעופה :

Calama, צ'ילה

קו רוחב: 22-29-59S, קו אורך: 068-54-29W, גובה: 2299מטר

תצפית מזג אוויר נוכחית

הדו"ח נערך לפני 33דקות, בשעה 19:00 UTC
רוח 16קשר מכיוון מערב
טמפרטורת 25 צלסיוס
לחות 2%
לחץ 1024 hPa
ראות 10 קילומטר או יותר
ללא עננים שבסיסם נמוך מ 5000 רגל או קומולונימבוס

METAR: SCCF 171900Z 27016KT CAVOK 25/M26 Q1024

זמן: 15:33 (19:33 UTC)

תחזית

הדו"ח נערך לפני 2 שעות ו 40דקות, בשעה 16:53 UTC
תחזית בתוקף מ 17 ב 18 UTC עד 18 ב 18 UTC
רוח 15קשר מכיוון מערב
ראות 10 קילומטר או יותר
ללא עננים שבסיסם נמוך מ 5000 רגל או קומולונימבוס
יעשה מ
17 ב 22 UTC עד 18 ב 00 UTC
רוח 5קשר מכיוון מערב
יעשה מ
18 ב 02 UTC עד 18 ב 04 UTC
רוח 20קשר מכיוון מזרח/דרום-מזרח
יעשה מ
18 ב 15 UTC עד 18 ב 16 UTC
רוח 10קשר מכיוון מזרח/דרום-מזרח
יעשה מ
18 ב 17 UTC עד 18 ב 18 UTC
רוח 15קשר מכיוון מערב

TAF: SCCF 171653Z 1718/1818 27015KT CAVOK TX26/1718Z TN02/1810Z BECMG 1722/1800 27005KT BECMG 1802/1804 11020KT BECMG 1815/1816 11010KT BECMG 1817/1818 27015KT

תצפיות ותחזיות מזג אוויר לגבי יותר מ- 4,000 שדות תעופה ברחבי העולם. דוחות METAR ו- TAF.

התחנות הזמינות מסומנות בנקודות צהובות ואדומות על גבי המפה.

העבר את העכבר לנקודה הצבעונית על מנת לראות את שם התחנה.

לאחר מכן, לחץ כדי לראות את תוכן ואת תחזיות מזג האוויר.

כדי לשנות את המפה: לחץ על הכפתורים הירוקים עם הפלוס השחור כדי להתקרב; על הכפתור הירוק עם המקף כדי להתרחק; או בחיצים הירוקים למפות סמוכות.


METAR-TAF: